F17

Center Municipal Airport

Center, Texas, USA
METAR KF17 232255Z AUTO 30007KT 260V330 10SM OVC037 18/11 A3000 RMK AO2 T01820106
Observed Flight Rules
Apr-23 @ 22:55 UTC (9 minutes ago) Visual Flight Rules
Wind Visibility Clouds
300° at 7 knots 10 miles
  • Overcast at 3,700' AGL
Temperatures Readings
Current 18°C / 64°F
Dewpoint 11°C / 52°F
Humidity 64%
Altimeter 30" Hg
Pressure 1016 hPa
Elevation 97
METAR KF17 232255Z AUTO 30007KT 260V330 10SM OVC037 18/11 A3000 RMK AO2 T01820106
Observed Flight Rules
Apr-23 @ 22:55 UTC
(9 minutes ago)
VFR
Wind Visibility
300° at 7 knots 10 miles
Clouds
  • Overcast at 3,700' AGL
Temperature Dewpoint
18°C / 64°F 11°C / 52°F
Humidity Altimeter Pressure
64% 30" Hg 1016 hPa